sensor_id;sensor_type;location;lat;lon;timestamp;P1;durP1;ratioP1;P2;durP2;ratioP2
8411;SDS011;4243;49.296;11.348;2023-04-24T00:00:21;118.20;;;2.73;;
8411;SDS011;4243;49.296;11.348;2023-04-24T00:02:48;118.70;;;2.70;;
8411;SDS011;4243;49.296;11.348;2023-04-24T00:05:17;117.27;;;2.70;;
8411;SDS011;4243;49.296;11.348;2023-04-24T00:07:44;118.40;;;2.77;;
8411;SDS011;4243;49.296;11.348;2023-04-24T00:10:12;117.70;;;2.70;;
8411;SDS011;4243;49.296;11.348;2023-04-24T00:12:39;118.37;;;2.80;;
8411;SDS011;4243;49.296;11.348;2023-04-24T00:15:06;117.50;;;2.67;;
8411;SDS011;4243;49.296;11.348;2023-04-24T00:17:35;117.80;;;2.70;;
8411;SDS011;4243;49.296;11.348;2023-04-24T00:20:02;117.70;;;2.80;;
8411;SDS011;4243;49.296;11.348;2023-04-24T00:22:33;118.00;;;2.80;;
8411;SDS011;4243;49.296;11.348;2023-04-24T00:25:00;117.70;;;2.80;;
8411;SDS011;4243;49.296;11.348;2023-04-24T00:27:27;118.47;;;2.70;;
8411;SDS011;4243;49.296;11.348;2023-04-24T00:29:54;117.27;;;2.70;;
8411;SDS011;4243;49.296;11.348;2023-04-24T00:32:22;118.47;;;2.70;;
8411;SDS011;4243;49.296;11.348;2023-04-24T00:34:49;118.30;;;2.70;;
8411;SDS011;4243;49.296;11.348;2023-04-24T00:37:16;118.87;;;2.70;;
8411;SDS011;4243;49.296;11.348;2023-04-24T00:39:43;117.70;;;2.70;;
8411;SDS011;4243;49.296;11.348;2023-04-24T00:42:11;118.30;;;2.77;;
8411;SDS011;4243;49.296;11.348;2023-04-24T00:44:38;117.47;;;2.70;;
8411;SDS011;4243;49.296;11.348;2023-04-24T00:47:06;117.77;;;2.67;;
8411;SDS011;4243;49.296;11.348;2023-04-24T00:49:34;118.70;;;2.77;;
8411;SDS011;4243;49.296;11.348;2023-04-24T00:52:02;118.10;;;2.70;;
8411;SDS011;4243;49.296;11.348;2023-04-24T00:54:33;118.67;;;2.70;;
8411;SDS011;4243;49.296;11.348;2023-04-24T00:57:04;116.30;;;2.70;;
8411;SDS011;4243;49.296;11.348;2023-04-24T00:59:32;117.90;;;2.70;;
8411;SDS011;4243;49.296;11.348;2023-04-24T01:01:59;118.57;;;2.77;;
8411;SDS011;4243;49.296;11.348;2023-04-24T01:04:26;118.00;;;2.77;;
8411;SDS011;4243;49.296;11.348;2023-04-24T01:06:55;118.13;;;2.70;;
8411;SDS011;4243;49.296;11.348;2023-04-24T01:09:23;118.20;;;2.70;;
8411;SDS011;4243;49.296;11.348;2023-04-24T01:11:51;118.27;;;2.70;;
8411;SDS011;4243;49.296;11.348;2023-04-24T01:14:19;117.27;;;2.70;;
8411;SDS011;4243;49.296;11.348;2023-04-24T01:16:48;118.03;;;2.70;;
8411;SDS011;4243;49.296;11.348;2023-04-24T01:19:15;118.00;;;2.70;;
8411;SDS011;4243;49.296;11.348;2023-04-24T01:21:45;116.97;;;2.70;;
8411;SDS011;4243;49.296;11.348;2023-04-24T01:24:20;117.23;;;2.70;;
8411;SDS011;4243;49.296;11.348;2023-04-24T01:26:47;117.37;;;2.70;;
8411;SDS011;4243;49.296;11.348;2023-04-24T01:29:14;117.37;;;2.70;;
8411;SDS011;4243;49.296;11.348;2023-04-24T01:31:42;118.47;;;2.67;;
8411;SDS011;4243;49.296;11.348;2023-04-24T01:34:09;118.00;;;2.70;;
8411;SDS011;4243;49.296;11.348;2023-04-24T01:36:37;116.57;;;2.70;;
8411;SDS011;4243;49.296;11.348;2023-04-24T01:39:05;118.37;;;2.80;;
8411;SDS011;4243;49.296;11.348;2023-04-24T01:41:32;117.43;;;2.80;;
8411;SDS011;4243;49.296;11.348;2023-04-24T01:44:00;118.20;;;2.70;;
8411;SDS011;4243;49.296;11.348;2023-04-24T01:46:27;117.00;;;2.70;;
8411;SDS011;4243;49.296;11.348;2023-04-24T01:48:57;118.10;;;2.70;;
8411;SDS011;4243;49.296;11.348;2023-04-24T01:51:26;118.30;;;2.80;;
8411;SDS011;4243;49.296;11.348;2023-04-24T01:53:55;115.90;;;2.80;;
8411;SDS011;4243;49.296;11.348;2023-04-24T01:56:23;118.57;;;2.70;;
8411;SDS011;4243;49.296;11.348;2023-04-24T01:58:50;117.30;;;2.73;;
8411;SDS011;4243;49.296;11.348;2023-04-24T02:01:20;118.47;;;2.80;;
8411;SDS011;4243;49.296;11.348;2023-04-24T02:03:49;117.67;;;2.73;;
8411;SDS011;4243;49.296;11.348;2023-04-24T02:06:17;118.27;;;2.77;;
8411;SDS011;4243;49.296;11.348;2023-04-24T02:08:45;117.80;;;2.87;;
8411;SDS011;4243;49.296;11.348;2023-04-24T02:11:12;118.27;;;2.77;;
8411;SDS011;4243;49.296;11.348;2023-04-24T02:13:39;118.20;;;2.80;;
8411;SDS011;4243;49.296;11.348;2023-04-24T02:16:06;118.37;;;2.90;;
8411;SDS011;4243;49.296;11.348;2023-04-24T02:18:33;116.40;;;2.80;;
8411;SDS011;4243;49.296;11.348;2023-04-24T02:21:00;117.20;;;2.70;;
8411;SDS011;4243;49.296;11.348;2023-04-24T02:23:27;118.60;;;2.80;;
8411;SDS011;4243;49.296;11.348;2023-04-24T02:25:54;117.17;;;2.90;;
8411;SDS011;4243;49.296;11.348;2023-04-24T02:28:23;118.30;;;2.80;;
8411;SDS011;4243;49.296;11.348;2023-04-24T02:30:51;118.67;;;2.77;;
8411;SDS011;4243;49.296;11.348;2023-04-24T02:33:21;117.80;;;2.80;;
8411;SDS011;4243;49.296;11.348;2023-04-24T02:35:48;117.50;;;2.80;;
8411;SDS011;4243;49.296;11.348;2023-04-24T02:38:15;118.23;;;2.77;;
8411;SDS011;4243;49.296;11.348;2023-04-24T02:40:43;118.07;;;2.90;;
8411;SDS011;4243;49.296;11.348;2023-04-24T02:43:10;117.70;;;2.90;;
8411;SDS011;4243;49.296;11.348;2023-04-24T02:45:37;118.57;;;2.77;;
8411;SDS011;4243;49.296;11.348;2023-04-24T02:48:04;117.93;;;2.87;;
8411;SDS011;4243;49.296;11.348;2023-04-24T02:50:32;117.17;;;2.80;;
8411;SDS011;4243;49.296;11.348;2023-04-24T02:52:59;117.37;;;2.80;;
8411;SDS011;4243;49.296;11.348;2023-04-24T02:55:27;117.10;;;2.80;;
8411;SDS011;4243;49.296;11.348;2023-04-24T02:57:54;117.43;;;2.70;;
8411;SDS011;4243;49.296;11.348;2023-04-24T03:00:22;118.17;;;2.80;;
8411;SDS011;4243;49.296;11.348;2023-04-24T03:02:49;118.63;;;2.90;;
8411;SDS011;4243;49.296;11.348;2023-04-24T03:05:16;117.27;;;2.80;;
8411;SDS011;4243;49.296;11.348;2023-04-24T03:07:43;116.60;;;2.80;;
8411;SDS011;4243;49.296;11.348;2023-04-24T03:10:12;117.57;;;2.77;;
8411;SDS011;4243;49.296;11.348;2023-04-24T03:12:40;116.37;;;2.80;;
8411;SDS011;4243;49.296;11.348;2023-04-24T03:15:07;118.43;;;2.80;;
8411;SDS011;4243;49.296;11.348;2023-04-24T03:17:36;116.70;;;2.90;;
8411;SDS011;4243;49.296;11.348;2023-04-24T03:20:03;116.47;;;2.80;;
8411;SDS011;4243;49.296;11.348;2023-04-24T03:22:32;117.50;;;2.80;;
8411;SDS011;4243;49.296;11.348;2023-04-24T03:25:02;117.60;;;2.80;;
8411;SDS011;4243;49.296;11.348;2023-04-24T03:27:31;118.27;;;2.73;;
8411;SDS011;4243;49.296;11.348;2023-04-24T03:30:01;118.37;;;2.80;;
8411;SDS011;4243;49.296;11.348;2023-04-24T03:32:49;118.17;;;2.87;;
8411;SDS011;4243;49.296;11.348;2023-04-24T03:35:21;117.07;;;2.70;;
8411;SDS011;4243;49.296;11.348;2023-04-24T03:37:49;116.77;;;2.87;;
8411;SDS011;4243;49.296;11.348;2023-04-24T03:40:48;118.10;;;2.83;;
8411;SDS011;4243;49.296;11.348;2023-04-24T03:43:34;118.17;;;2.77;;
8411;SDS011;4243;49.296;11.348;2023-04-24T03:46:03;117.80;;;2.90;;
8411;SDS011;4243;49.296;11.348;2023-04-24T03:48:35;118.30;;;2.83;;
8411;SDS011;4243;49.296;11.348;2023-04-24T03:51:03;117.50;;;2.90;;
8411;SDS011;4243;49.296;11.348;2023-04-24T03:53:31;117.60;;;2.90;;
8411;SDS011;4243;49.296;11.348;2023-04-24T03:55:58;116.57;;;2.77;;
8411;SDS011;4243;49.296;11.348;2023-04-24T03:58:26;117.87;;;2.80;;
8411;SDS011;4243;49.296;11.348;2023-04-24T04:00:55;116.97;;;2.83;;
8411;SDS011;4243;49.296;11.348;2023-04-24T04:03:42;115.63;;;2.80;;
8411;SDS011;4243;49.296;11.348;2023-04-24T04:06:10;117.70;;;2.80;;
8411;SDS011;4243;49.296;11.348;2023-04-24T04:08:41;116.90;;;2.77;;
8411;SDS011;4243;49.296;11.348;2023-04-24T04:11:08;116.77;;;2.80;;
8411;SDS011;4243;49.296;11.348;2023-04-24T04:13:35;117.67;;;2.80;;
8411;SDS011;4243;49.296;11.348;2023-04-24T04:16:04;118.47;;;2.80;;
8411;SDS011;4243;49.296;11.348;2023-04-24T04:18:31;117.80;;;2.80;;
8411;SDS011;4243;49.296;11.348;2023-04-24T04:20:59;118.07;;;2.83;;
8411;SDS011;4243;49.296;11.348;2023-04-24T04:23:27;117.80;;;2.80;;
8411;SDS011;4243;49.296;11.348;2023-04-24T04:26:04;118.20;;;2.80;;
8411;SDS011;4243;49.296;11.348;2023-04-24T04:28:51;116.47;;;2.80;;
8411;SDS011;4243;49.296;11.348;2023-04-24T04:31:19;116.70;;;2.80;;
8411;SDS011;4243;49.296;11.348;2023-04-24T04:33:48;117.40;;;2.70;;
8411;SDS011;4243;49.296;11.348;2023-04-24T04:36:15;117.67;;;2.90;;
8411;SDS011;4243;49.296;11.348;2023-04-24T04:38:47;118.10;;;2.77;;
8411;SDS011;4243;49.296;11.348;2023-04-24T04:41:37;117.47;;;2.70;;
8411;SDS011;4243;49.296;11.348;2023-04-24T04:44:07;118.20;;;2.87;;
8411;SDS011;4243;49.296;11.348;2023-04-24T04:46:36;117.00;;;2.70;;
8411;SDS011;4243;49.296;11.348;2023-04-24T04:49:16;117.47;;;2.77;;
8411;SDS011;4243;49.296;11.348;2023-04-24T04:51:44;117.43;;;2.73;;
8411;SDS011;4243;49.296;11.348;2023-04-24T04:54:11;116.47;;;2.70;;
8411;SDS011;4243;49.296;11.348;2023-04-24T04:56:39;117.90;;;2.60;;
8411;SDS011;4243;49.296;11.348;2023-04-24T04:59:06;117.47;;;2.70;;
8411;SDS011;4243;49.296;11.348;2023-04-24T05:01:36;117.17;;;2.70;;
8411;SDS011;4243;49.296;11.348;2023-04-24T05:04:05;118.00;;;2.80;;
8411;SDS011;4243;49.296;11.348;2023-04-24T05:06:33;117.00;;;2.60;;
8411;SDS011;4243;49.296;11.348;2023-04-24T05:09:00;117.00;;;2.70;;
8411;SDS011;4243;49.296;11.348;2023-04-24T05:11:35;116.93;;;2.63;;
8411;SDS011;4243;49.296;11.348;2023-04-24T05:14:02;117.63;;;2.70;;
8411;SDS011;4243;49.296;11.348;2023-04-24T05:16:38;117.00;;;2.90;;
8411;SDS011;4243;49.296;11.348;2023-04-24T05:19:08;116.93;;;2.63;;
8411;SDS011;4243;49.296;11.348;2023-04-24T05:21:40;117.47;;;2.70;;
8411;SDS011;4243;49.296;11.348;2023-04-24T05:24:09;117.27;;;2.70;;
8411;SDS011;4243;49.296;11.348;2023-04-24T05:26:46;117.87;;;2.60;;
8411;SDS011;4243;49.296;11.348;2023-04-24T05:29:17;116.30;;;2.60;;
8411;SDS011;4243;49.296;11.348;2023-04-24T05:31:45;117.77;;;2.67;;
8411;SDS011;4243;49.296;11.348;2023-04-24T05:34:12;117.27;;;2.63;;
8411;SDS011;4243;49.296;11.348;2023-04-24T05:36:42;117.57;;;2.67;;
8411;SDS011;4243;49.296;11.348;2023-04-24T05:39:10;116.27;;;2.67;;
8411;SDS011;4243;49.296;11.348;2023-04-24T05:41:37;116.40;;;2.60;;
8411;SDS011;4243;49.296;11.348;2023-04-24T05:44:04;116.60;;;2.67;;
8411;SDS011;4243;49.296;11.348;2023-04-24T05:46:32;116.47;;;2.60;;
8411;SDS011;4243;49.296;11.348;2023-04-24T05:48:59;116.60;;;2.67;;
8411;SDS011;4243;49.296;11.348;2023-04-24T05:51:26;114.70;;;2.50;;
8411;SDS011;4243;49.296;11.348;2023-04-24T05:53:55;117.17;;;2.80;;
8411;SDS011;4243;49.296;11.348;2023-04-24T05:56:23;116.50;;;2.73;;
8411;SDS011;4243;49.296;11.348;2023-04-24T05:58:51;116.30;;;2.70;;
8411;SDS011;4243;49.296;11.348;2023-04-24T06:01:21;116.50;;;2.63;;
8411;SDS011;4243;49.296;11.348;2023-04-24T06:03:58;116.97;;;2.60;;
8411;SDS011;4243;49.296;11.348;2023-04-24T06:06:28;117.57;;;2.70;;
8411;SDS011;4243;49.296;11.348;2023-04-24T06:08:55;116.70;;;2.60;;
8411;SDS011;4243;49.296;11.348;2023-04-24T06:11:26;115.30;;;2.60;;
8411;SDS011;4243;49.296;11.348;2023-04-24T06:13:53;116.97;;;2.63;;
8411;SDS011;4243;49.296;11.348;2023-04-24T06:16:53;116.17;;;2.60;;
8411;SDS011;4243;49.296;11.348;2023-04-24T06:19:31;117.40;;;2.80;;
8411;SDS011;4243;49.296;11.348;2023-04-24T06:21:58;117.20;;;2.60;;
8411;SDS011;4243;49.296;11.348;2023-04-24T06:24:28;115.67;;;2.60;;
8411;SDS011;4243;49.296;11.348;2023-04-24T06:26:57;117.40;;;2.50;;
8411;SDS011;4243;49.296;11.348;2023-04-24T06:29:26;117.17;;;2.53;;
8411;SDS011;4243;49.296;11.348;2023-04-24T06:31:53;116.77;;;2.60;;
8411;SDS011;4243;49.296;11.348;2023-04-24T06:34:20;116.97;;;2.60;;
8411;SDS011;4243;49.296;11.348;2023-04-24T06:36:47;116.40;;;2.57;;
8411;SDS011;4243;49.296;11.348;2023-04-24T06:39:14;116.63;;;2.47;;
8411;SDS011;4243;49.296;11.348;2023-04-24T06:41:41;116.73;;;2.50;;
8411;SDS011;4243;49.296;11.348;2023-04-24T06:44:17;116.60;;;2.50;;
8411;SDS011;4243;49.296;11.348;2023-04-24T06:46:45;117.27;;;2.40;;
8411;SDS011;4243;49.296;11.348;2023-04-24T06:49:12;117.10;;;2.43;;
8411;SDS011;4243;49.296;11.348;2023-04-24T06:51:42;116.70;;;2.47;;
8411;SDS011;4243;49.296;11.348;2023-04-24T06:54:09;116.10;;;2.33;;
8411;SDS011;4243;49.296;11.348;2023-04-24T06:56:36;116.13;;;2.50;;
8411;SDS011;4243;49.296;11.348;2023-04-24T06:59:04;116.23;;;2.37;;
8411;SDS011;4243;49.296;11.348;2023-04-24T07:01:31;115.90;;;2.30;;
8411;SDS011;4243;49.296;11.348;2023-04-24T07:03:58;116.97;;;2.50;;
8411;SDS011;4243;49.296;11.348;2023-04-24T07:06:25;116.70;;;2.50;;
8411;SDS011;4243;49.296;11.348;2023-04-24T07:08:53;116.97;;;2.50;;
8411;SDS011;4243;49.296;11.348;2023-04-24T07:11:21;116.27;;;2.50;;
8411;SDS011;4243;49.296;11.348;2023-04-24T07:13:48;117.33;;;2.60;;
8411;SDS011;4243;49.296;11.348;2023-04-24T07:16:16;116.70;;;2.63;;
8411;SDS011;4243;49.296;11.348;2023-04-24T07:18:43;116.93;;;2.60;;
8411;SDS011;4243;49.296;11.348;2023-04-24T07:21:11;116.70;;;2.60;;
8411;SDS011;4243;49.296;11.348;2023-04-24T07:23:38;117.00;;;2.70;;
8411;SDS011;4243;49.296;11.348;2023-04-24T07:26:07;117.57;;;2.50;;
8411;SDS011;4243;49.296;11.348;2023-04-24T07:28:34;116.93;;;2.67;;
8411;SDS011;4243;49.296;11.348;2023-04-24T07:31:02;116.47;;;2.67;;
8411;SDS011;4243;49.296;11.348;2023-04-24T07:33:30;117.27;;;2.60;;
8411;SDS011;4243;49.296;11.348;2023-04-24T07:35:58;117.07;;;2.60;;
8411;SDS011;4243;49.296;11.348;2023-04-24T07:38:25;117.10;;;2.60;;
8411;SDS011;4243;49.296;11.348;2023-04-24T07:40:55;116.50;;;2.60;;
8411;SDS011;4243;49.296;11.348;2023-04-24T07:43:23;117.00;;;2.60;;
8411;SDS011;4243;49.296;11.348;2023-04-24T07:45:50;116.80;;;2.60;;
8411;SDS011;4243;49.296;11.348;2023-04-24T07:48:18;117.10;;;2.63;;
8411;SDS011;4243;49.296;11.348;2023-04-24T07:50:47;115.90;;;2.67;;
8411;SDS011;4243;49.296;11.348;2023-04-24T07:53:15;116.53;;;2.60;;
8411;SDS011;4243;49.296;11.348;2023-04-24T07:55:42;116.63;;;2.63;;
8411;SDS011;4243;49.296;11.348;2023-04-24T07:58:09;116.90;;;2.70;;
8411;SDS011;4243;49.296;11.348;2023-04-24T08:03:52;115.57;;;2.50;;
8411;SDS011;4243;49.296;11.348;2023-04-24T08:06:20;116.90;;;2.57;;
8411;SDS011;4243;49.296;11.348;2023-04-24T08:08:47;116.30;;;2.57;;
8411;SDS011;4243;49.296;11.348;2023-04-24T08:11:14;115.77;;;2.53;;
8411;SDS011;4243;49.296;11.348;2023-04-24T08:13:41;117.07;;;2.50;;
8411;SDS011;4243;49.296;11.348;2023-04-24T08:16:09;117.17;;;2.50;;
8411;SDS011;4243;49.296;11.348;2023-04-24T08:18:36;115.40;;;2.50;;
8411;SDS011;4243;49.296;11.348;2023-04-24T08:21:03;116.73;;;2.50;;
8411;SDS011;4243;49.296;11.348;2023-04-24T08:23:31;116.77;;;2.47;;
8411;SDS011;4243;49.296;11.348;2023-04-24T08:25:58;116.63;;;2.50;;
8411;SDS011;4243;49.296;11.348;2023-04-24T08:28:25;116.80;;;2.40;;
8411;SDS011;4243;49.296;11.348;2023-04-24T08:30:52;116.67;;;2.50;;
8411;SDS011;4243;49.296;11.348;2023-04-24T08:33:22;116.80;;;2.47;;
8411;SDS011;4243;49.296;11.348;2023-04-24T08:35:50;116.00;;;2.40;;
8411;SDS011;4243;49.296;11.348;2023-04-24T08:38:18;116.80;;;2.40;;
8411;SDS011;4243;49.296;11.348;2023-04-24T08:40:46;116.70;;;2.50;;
8411;SDS011;4243;49.296;11.348;2023-04-24T08:43:15;116.40;;;2.50;;
8411;SDS011;4243;49.296;11.348;2023-04-24T08:45:43;117.03;;;2.50;;
8411;SDS011;4243;49.296;11.348;2023-04-24T08:48:11;116.00;;;2.47;;
8411;SDS011;4243;49.296;11.348;2023-04-24T08:50:56;114.47;;;2.50;;
8411;SDS011;4243;49.296;11.348;2023-04-24T08:53:24;115.50;;;2.50;;
8411;SDS011;4243;49.296;11.348;2023-04-24T08:55:53;116.60;;;2.37;;
8411;SDS011;4243;49.296;11.348;2023-04-24T08:58:24;116.17;;;2.40;;
8411;SDS011;4243;49.296;11.348;2023-04-24T09:00:55;116.53;;;2.50;;
8411;SDS011;4243;49.296;11.348;2023-04-24T09:03:24;116.30;;;2.40;;
8411;SDS011;4243;49.296;11.348;2023-04-24T09:05:55;115.80;;;2.40;;
8411;SDS011;4243;49.296;11.348;2023-04-24T09:08:24;116.10;;;2.47;;
8411;SDS011;4243;49.296;11.348;2023-04-24T09:10:52;115.90;;;2.43;;
8411;SDS011;4243;49.296;11.348;2023-04-24T09:13:20;115.40;;;2.37;;
8411;SDS011;4243;49.296;11.348;2023-04-24T09:15:47;115.87;;;2.50;;
8411;SDS011;4243;49.296;11.348;2023-04-24T09:18:15;115.97;;;2.40;;
8411;SDS011;4243;49.296;11.348;2023-04-24T09:23:59;115.97;;;2.60;;
8411;SDS011;4243;49.296;11.348;2023-04-24T09:26:30;115.70;;;2.50;;
8411;SDS011;4243;49.296;11.348;2023-04-24T09:29:00;115.33;;;2.40;;
8411;SDS011;4243;49.296;11.348;2023-04-24T09:31:28;116.10;;;2.60;;
8411;SDS011;4243;49.296;11.348;2023-04-24T09:33:57;116.20;;;2.60;;
8411;SDS011;4243;49.296;11.348;2023-04-24T09:36:29;115.90;;;2.40;;
8411;SDS011;4243;49.296;11.348;2023-04-24T09:39:05;115.67;;;2.47;;
8411;SDS011;4243;49.296;11.348;2023-04-24T09:41:46;116.00;;;2.53;;
8411;SDS011;4243;49.296;11.348;2023-04-24T09:44:24;115.57;;;2.50;;
8411;SDS011;4243;49.296;11.348;2023-04-24T09:46:55;116.63;;;2.50;;
8411;SDS011;4243;49.296;11.348;2023-04-24T09:49:29;116.10;;;2.50;;
8411;SDS011;4243;49.296;11.348;2023-04-24T09:52:02;116.07;;;2.40;;
8411;SDS011;4243;49.296;11.348;2023-04-24T09:54:40;116.10;;;2.33;;
8411;SDS011;4243;49.296;11.348;2023-04-24T09:57:07;116.07;;;2.43;;
8411;SDS011;4243;49.296;11.348;2023-04-24T09:59:35;115.87;;;2.30;;
8411;SDS011;4243;49.296;11.348;2023-04-24T10:02:17;115.60;;;2.37;;
8411;SDS011;4243;49.296;11.348;2023-04-24T10:04:56;116.30;;;2.50;;
8411;SDS011;4243;49.296;11.348;2023-04-24T10:07:26;116.40;;;2.57;;
8411;SDS011;4243;49.296;11.348;2023-04-24T10:09:54;116.40;;;2.47;;
8411;SDS011;4243;49.296;11.348;2023-04-24T10:12:21;116.00;;;2.40;;
8411;SDS011;4243;49.296;11.348;2023-04-24T10:14:49;115.97;;;2.40;;
8411;SDS011;4243;49.296;11.348;2023-04-24T10:17:17;116.47;;;2.50;;
8411;SDS011;4243;49.296;11.348;2023-04-24T10:19:47;115.70;;;2.40;;
8411;SDS011;4243;49.296;11.348;2023-04-24T10:22:14;115.90;;;2.47;;
8411;SDS011;4243;49.296;11.348;2023-04-24T10:24:44;116.20;;;2.60;;
8411;SDS011;4243;49.296;11.348;2023-04-24T10:27:13;116.50;;;2.63;;
8411;SDS011;4243;49.296;11.348;2023-04-24T10:29:41;114.37;;;2.57;;
8411;SDS011;4243;49.296;11.348;2023-04-24T10:32:10;116.47;;;2.60;;
8411;SDS011;4243;49.296;11.348;2023-04-24T10:34:38;116.33;;;2.50;;
8411;SDS011;4243;49.296;11.348;2023-04-24T10:37:05;116.40;;;2.43;;
8411;SDS011;4243;49.296;11.348;2023-04-24T10:39:33;116.40;;;2.37;;
8411;SDS011;4243;49.296;11.348;2023-04-24T10:42:01;116.17;;;2.40;;
8411;SDS011;4243;49.296;11.348;2023-04-24T10:44:35;116.17;;;2.33;;
8411;SDS011;4243;49.296;11.348;2023-04-24T10:47:03;115.60;;;2.20;;
8411;SDS011;4243;49.296;11.348;2023-04-24T10:49:31;115.97;;;2.30;;
8411;SDS011;4243;49.296;11.348;2023-04-24T10:52:02;116.27;;;2.20;;
8411;SDS011;4243;49.296;11.348;2023-04-24T10:57:40;114.87;;;2.20;;
8411;SDS011;4243;49.296;11.348;2023-04-24T11:00:19;115.77;;;2.03;;
8411;SDS011;4243;49.296;11.348;2023-04-24T11:02:48;115.27;;;2.17;;
8411;SDS011;4243;49.296;11.348;2023-04-24T11:05:17;115.20;;;2.20;;
8411;SDS011;4243;49.296;11.348;2023-04-24T11:10:59;114.67;;;2.10;;
8411;SDS011;4243;49.296;11.348;2023-04-24T11:14:01;115.00;;;2.20;;
8411;SDS011;4243;49.296;11.348;2023-04-24T11:16:38;114.83;;;2.27;;
8411;SDS011;4243;49.296;11.348;2023-04-24T11:19:25;115.70;;;2.20;;
8411;SDS011;4243;49.296;11.348;2023-04-24T11:27:22;115.37;;;2.10;;
8411;SDS011;4243;49.296;11.348;2023-04-24T11:37:36;116.20;;;2.50;;
8411;SDS011;4243;49.296;11.348;2023-04-24T11:40:07;115.70;;;2.30;;
8411;SDS011;4243;49.296;11.348;2023-04-24T11:42:40;116.17;;;2.30;;
8411;SDS011;4243;49.296;11.348;2023-04-24T11:45:14;115.90;;;2.30;;
8411;SDS011;4243;49.296;11.348;2023-04-24T11:47:51;115.80;;;2.20;;
8411;SDS011;4243;49.296;11.348;2023-04-24T11:50:20;115.80;;;2.37;;
8411;SDS011;4243;49.296;11.348;2023-04-24T11:52:55;115.97;;;2.20;;
8411;SDS011;4243;49.296;11.348;2023-04-24T11:55:24;115.83;;;2.27;;
8411;SDS011;4243;49.296;11.348;2023-04-24T11:57:55;114.70;;;2.10;;
8411;SDS011;4243;49.296;11.348;2023-04-24T12:03:09;115.20;;;2.40;;
8411;SDS011;4243;49.296;11.348;2023-04-24T12:05:39;115.60;;;2.40;;
8411;SDS011;4243;49.296;11.348;2023-04-24T12:08:07;115.57;;;2.40;;
8411;SDS011;4243;49.296;11.348;2023-04-24T12:10:34;115.33;;;2.30;;
8411;SDS011;4243;49.296;11.348;2023-04-24T12:13:02;115.63;;;2.20;;
8411;SDS011;4243;49.296;11.348;2023-04-24T12:15:29;116.03;;;2.20;;
8411;SDS011;4243;49.296;11.348;2023-04-24T12:17:57;116.10;;;2.23;;
8411;SDS011;4243;49.296;11.348;2023-04-24T12:20:31;116.37;;;2.30;;
8411;SDS011;4243;49.296;11.348;2023-04-24T12:22:59;116.47;;;2.50;;
8411;SDS011;4243;49.296;11.348;2023-04-24T12:25:31;116.57;;;2.50;;
8411;SDS011;4243;49.296;11.348;2023-04-24T12:30:30;116.70;;;2.50;;
8411;SDS011;4243;49.296;11.348;2023-04-24T12:33:10;116.77;;;2.50;;
8411;SDS011;4243;49.296;11.348;2023-04-24T12:35:39;116.57;;;2.50;;
8411;SDS011;4243;49.296;11.348;2023-04-24T12:38:11;116.20;;;2.40;;
8411;SDS011;4243;49.296;11.348;2023-04-24T12:40:40;116.77;;;2.40;;
8411;SDS011;4243;49.296;11.348;2023-04-24T12:43:14;116.30;;;2.40;;
8411;SDS011;4243;49.296;11.348;2023-04-24T12:45:44;116.50;;;2.47;;
8411;SDS011;4243;49.296;11.348;2023-04-24T12:48:13;116.60;;;2.47;;
8411;SDS011;4243;49.296;11.348;2023-04-24T12:50:41;116.60;;;2.43;;
8411;SDS011;4243;49.296;11.348;2023-04-24T12:53:12;116.67;;;2.47;;
8411;SDS011;4243;49.296;11.348;2023-04-24T12:55:40;116.50;;;2.50;;
8411;SDS011;4243;49.296;11.348;2023-04-24T12:58:07;116.80;;;2.40;;
8411;SDS011;4243;49.296;11.348;2023-04-24T13:00:35;116.37;;;2.60;;
8411;SDS011;4243;49.296;11.348;2023-04-24T13:03:03;116.43;;;2.50;;
8411;SDS011;4243;49.296;11.348;2023-04-24T13:05:31;116.37;;;2.50;;
8411;SDS011;4243;49.296;11.348;2023-04-24T13:07:58;116.30;;;2.60;;
8411;SDS011;4243;49.296;11.348;2023-04-24T13:10:25;116.27;;;2.43;;
8411;SDS011;4243;49.296;11.348;2023-04-24T13:12:52;115.90;;;2.60;;
8411;SDS011;4243;49.296;11.348;2023-04-24T13:15:20;116.67;;;2.60;;
8411;SDS011;4243;49.296;11.348;2023-04-24T13:17:47;116.47;;;2.53;;
8411;SDS011;4243;49.296;11.348;2023-04-24T13:20:14;116.20;;;2.37;;
8411;SDS011;4243;49.296;11.348;2023-04-24T13:22:41;115.60;;;2.27;;
8411;SDS011;4243;49.296;11.348;2023-04-24T13:25:08;115.77;;;2.20;;
8411;SDS011;4243;49.296;11.348;2023-04-24T13:27:38;115.80;;;2.30;;
8411;SDS011;4243;49.296;11.348;2023-04-24T13:30:06;115.60;;;2.20;;
8411;SDS011;4243;49.296;11.348;2023-04-24T13:32:34;115.70;;;2.13;;
8411;SDS011;4243;49.296;11.348;2023-04-24T13:35:01;115.57;;;2.13;;
8411;SDS011;4243;49.296;11.348;2023-04-24T13:37:29;115.67;;;2.17;;
8411;SDS011;4243;49.296;11.348;2023-04-24T13:39:56;115.70;;;2.40;;
8411;SDS011;4243;49.296;11.348;2023-04-24T13:42:23;116.00;;;2.33;;
8411;SDS011;4243;49.296;11.348;2023-04-24T13:44:51;115.67;;;2.33;;
8411;SDS011;4243;49.296;11.348;2023-04-24T13:47:20;115.93;;;2.50;;
8411;SDS011;4243;49.296;11.348;2023-04-24T13:49:47;116.30;;;2.50;;
8411;SDS011;4243;49.296;11.348;2023-04-24T13:52:14;115.63;;;2.53;;
8411;SDS011;4243;49.296;11.348;2023-04-24T13:54:41;116.60;;;2.53;;
8411;SDS011;4243;49.296;11.348;2023-04-24T13:57:09;116.17;;;2.60;;
8411;SDS011;4243;49.296;11.348;2023-04-24T13:59:36;115.10;;;2.47;;
8411;SDS011;4243;49.296;11.348;2023-04-24T14:02:04;114.17;;;2.50;;
8411;SDS011;4243;49.296;11.348;2023-04-24T14:04:31;116.60;;;2.40;;
8411;SDS011;4243;49.296;11.348;2023-04-24T14:06:59;115.90;;;2.40;;
8411;SDS011;4243;49.296;11.348;2023-04-24T14:09:26;116.07;;;2.30;;
8411;SDS011;4243;49.296;11.348;2023-04-24T14:11:53;116.97;;;2.33;;
8411;SDS011;4243;49.296;11.348;2023-04-24T14:14:20;116.80;;;2.37;;
8411;SDS011;4243;49.296;11.348;2023-04-24T14:16:47;115.90;;;2.40;;
8411;SDS011;4243;49.296;11.348;2023-04-24T14:19:15;116.77;;;2.40;;
8411;SDS011;4243;49.296;11.348;2023-04-24T14:21:42;116.43;;;2.40;;
8411;SDS011;4243;49.296;11.348;2023-04-24T14:24:09;116.70;;;2.47;;
8411;SDS011;4243;49.296;11.348;2023-04-24T14:26:37;116.30;;;2.50;;
8411;SDS011;4243;49.296;11.348;2023-04-24T14:29:04;115.57;;;2.50;;
8411;SDS011;4243;49.296;11.348;2023-04-24T14:31:40;115.90;;;2.40;;
8411;SDS011;4243;49.296;11.348;2023-04-24T14:34:08;116.23;;;2.30;;
8411;SDS011;4243;49.296;11.348;2023-04-24T14:36:35;115.70;;;2.33;;
8411;SDS011;4243;49.296;11.348;2023-04-24T14:39:03;115.80;;;2.40;;
8411;SDS011;4243;49.296;11.348;2023-04-24T14:41:32;115.87;;;2.30;;
8411;SDS011;4243;49.296;11.348;2023-04-24T14:44:03;115.50;;;2.20;;
8411;SDS011;4243;49.296;11.348;2023-04-24T14:46:31;114.87;;;2.10;;
8411;SDS011;4243;49.296;11.348;2023-04-24T14:48:58;115.30;;;2.20;;
8411;SDS011;4243;49.296;11.348;2023-04-24T14:51:26;115.67;;;2.20;;
8411;SDS011;4243;49.296;11.348;2023-04-24T14:53:53;115.20;;;2.10;;
8411;SDS011;4243;49.296;11.348;2023-04-24T14:56:20;115.67;;;2.30;;
8411;SDS011;4243;49.296;11.348;2023-04-24T14:58:47;115.60;;;2.30;;
8411;SDS011;4243;49.296;11.348;2023-04-24T15:01:15;115.67;;;2.30;;
8411;SDS011;4243;49.296;11.348;2023-04-24T15:03:43;115.73;;;2.50;;
8411;SDS011;4243;49.296;11.348;2023-04-24T15:06:12;114.87;;;2.40;;
8411;SDS011;4243;49.296;11.348;2023-04-24T15:08:39;116.90;;;2.43;;
8411;SDS011;4243;49.296;11.348;2023-04-24T15:11:06;115.67;;;2.40;;
8411;SDS011;4243;49.296;11.348;2023-04-24T15:13:34;117.17;;;2.40;;
8411;SDS011;4243;49.296;11.348;2023-04-24T15:16:02;117.10;;;2.30;;